createdAt,value
2019-04-06T00:01:07.688Z,29.07
2019-04-06T00:03:35.345Z,29.00
2019-04-06T00:06:03.307Z,25.43
2019-04-06T00:08:31.197Z,26.77
2019-04-06T00:10:58.840Z,27.60
2019-04-06T00:13:26.583Z,26.90
2019-04-06T00:15:54.241Z,23.57
2019-04-06T00:18:21.888Z,26.40
2019-04-06T00:20:49.543Z,28.17
2019-04-06T00:23:17.187Z,25.03
2019-04-06T00:25:45.105Z,28.43
2019-04-06T00:28:12.976Z,27.77
2019-04-06T00:30:50.185Z,30.00
2019-04-06T00:33:19.225Z,23.43
2019-04-06T00:35:46.875Z,28.20
2019-04-06T00:38:14.523Z,25.17
2019-04-06T00:40:42.187Z,23.60
2019-04-06T00:43:09.876Z,28.53
2019-04-06T00:45:37.511Z,22.57
2019-04-06T00:48:05.181Z,28.80
2019-04-06T00:50:32.987Z,25.43
2019-04-06T00:53:00.645Z,24.90
2019-04-06T00:55:28.304Z,26.00
2019-04-06T00:57:55.955Z,23.90
2019-04-06T01:00:23.706Z,29.27
2019-04-06T01:02:51.368Z,22.73
2019-04-06T01:05:19.486Z,26.13
2019-04-06T01:07:47.185Z,27.43
2019-04-06T01:10:14.844Z,22.60
2019-04-06T01:12:42.499Z,25.27
2019-04-06T01:15:10.234Z,24.00
2019-04-06T01:17:37.875Z,22.67
2019-04-06T01:20:05.540Z,24.03
2019-04-06T01:22:33.194Z,23.70
2019-04-06T01:25:00.854Z,23.57
2019-04-06T01:27:28.588Z,25.23
2019-04-06T01:29:56.464Z,22.53
2019-04-06T01:32:24.118Z,23.33
2019-04-06T01:34:51.808Z,23.80
2019-04-06T01:37:19.514Z,25.00
2019-04-06T01:39:47.665Z,24.83
2019-04-06T01:42:15.497Z,22.90
2019-04-06T01:44:43.147Z,23.77
2019-04-06T01:47:10.831Z,22.33
2019-04-06T01:49:38.623Z,26.27
2019-04-06T01:52:06.381Z,23.10
2019-04-06T01:54:34.138Z,22.17
2019-04-06T01:57:01.904Z,24.97
2019-04-06T01:59:29.609Z,25.97
2019-04-06T02:02:00.848Z,22.37
2019-04-06T02:04:28.482Z,18.90
2019-04-06T02:06:56.141Z,23.00
2019-04-06T02:09:23.775Z,22.87
2019-04-06T02:11:51.439Z,23.67
2019-04-06T02:14:19.097Z,22.43
2019-04-06T02:16:46.740Z,22.57
2019-04-06T02:19:15.592Z,22.53
2019-04-06T02:21:43.308Z,23.47
2019-04-06T02:24:11.875Z,24.03
2019-04-06T02:26:39.583Z,24.83
2019-04-06T02:29:07.232Z,24.30
2019-04-06T02:31:46.656Z,21.73
2019-04-06T02:34:24.937Z,27.73
2019-04-06T02:37:04.286Z,23.03
2019-04-06T02:39:40.637Z,23.57
2019-04-06T02:42:13.732Z,25.63
2019-04-06T02:44:41.377Z,21.07
2019-04-06T02:47:09.499Z,23.30
2019-04-06T02:49:37.232Z,22.27
2019-04-06T02:52:04.875Z,21.27
2019-04-06T02:54:32.533Z,23.27
2019-04-06T02:57:00.186Z,22.23
2019-04-06T02:59:27.860Z,21.40
2019-04-06T03:01:55.772Z,20.10
2019-04-06T03:04:23.427Z,22.27
2019-04-06T03:06:51.082Z,22.40
2019-04-06T03:09:18.839Z,21.90
2019-04-06T03:11:46.546Z,23.00
2019-04-06T03:14:14.327Z,22.30
2019-04-06T03:16:42.123Z,19.47
2019-04-06T03:19:09.912Z,21.50
2019-04-06T03:21:37.578Z,23.20
2019-04-06T03:24:05.285Z,21.67
2019-04-06T03:26:33.138Z,23.47
2019-04-06T03:29:00.869Z,20.23
2019-04-06T03:31:28.739Z,22.87
2019-04-06T03:33:56.589Z,21.23
2019-04-06T03:36:24.361Z,23.07
2019-04-06T03:38:52.009Z,23.60
2019-04-06T03:41:19.698Z,19.37
2019-04-06T03:43:47.523Z,22.80
2019-04-06T03:46:15.233Z,19.03
2019-04-06T03:48:42.960Z,20.83
2019-04-06T03:51:10.805Z,21.60
2019-04-06T03:53:38.555Z,21.47
2019-04-06T03:56:06.204Z,21.93
2019-04-06T03:58:33.934Z,26.87
2019-04-06T04:01:01.781Z,18.47
2019-04-06T04:03:29.557Z,26.37
2019-04-06T04:05:57.301Z,23.63
2019-04-06T04:08:26.451Z,25.97
2019-04-06T04:10:54.148Z,19.87
2019-04-06T04:13:21.819Z,23.40
2019-04-06T04:15:49.472Z,19.03
2019-04-06T04:18:17.127Z,21.60
2019-04-06T04:20:45.185Z,21.67
2019-04-06T04:23:13.055Z,24.70
2019-04-06T04:25:40.741Z,22.60
2019-04-06T04:28:08.433Z,22.20
2019-04-06T04:30:36.246Z,24.27
2019-04-06T04:33:04.044Z,21.97
2019-04-06T04:35:31.696Z,20.80
2019-04-06T04:37:59.344Z,24.97
2019-04-06T04:40:27.126Z,20.03
2019-04-06T04:42:54.780Z,19.83
2019-04-06T04:45:23.076Z,21.40
2019-04-06T04:47:50.725Z,22.37
2019-04-06T04:50:18.447Z,23.77
2019-04-06T04:52:46.254Z,20.53
2019-04-06T04:55:14.035Z,26.40
2019-04-06T04:57:44.766Z,20.70
2019-04-06T05:00:11.132Z,19.27
2019-04-06T05:02:38.855Z,22.10
2019-04-06T05:05:06.512Z,24.00
2019-04-06T05:07:34.155Z,20.50
2019-04-06T05:10:01.818Z,22.97
2019-04-06T05:12:29.476Z,20.77
2019-04-06T05:14:57.134Z,19.13
2019-04-06T05:17:25.323Z,23.00
2019-04-06T05:19:53.068Z,20.57
2019-04-06T05:22:20.723Z,20.00
2019-04-06T05:24:48.538Z,19.97
2019-04-06T05:27:16.414Z,22.07
2019-04-06T05:29:44.059Z,20.53
2019-04-06T05:32:11.851Z,20.03
2019-04-06T05:34:39.489Z,21.43
2019-04-06T05:37:07.266Z,23.93
2019-04-06T05:39:34.959Z,21.30
2019-04-06T05:42:02.775Z,18.67
2019-04-06T05:44:30.431Z,23.93
2019-04-06T05:46:58.094Z,24.03
2019-04-06T05:49:25.748Z,20.47
2019-04-06T05:51:53.475Z,22.53
2019-04-06T05:54:21.123Z,22.40
2019-04-06T05:56:48.765Z,23.30
2019-04-06T05:59:16.431Z,22.23
2019-04-06T06:01:44.140Z,21.77
2019-04-06T06:04:11.800Z,22.23
2019-04-06T06:06:39.434Z,19.50
2019-04-06T06:09:07.585Z,18.50
2019-04-06T06:11:35.260Z,17.70
2019-04-06T06:14:02.940Z,22.70
2019-04-06T06:16:30.659Z,17.00
2019-04-06T06:18:58.312Z,21.60
2019-04-06T06:21:25.964Z,17.93
2019-04-06T06:23:53.609Z,17.63
2019-04-06T06:26:21.425Z,17.60
2019-04-06T06:28:49.279Z,17.03
2019-04-06T06:31:17.320Z,16.97
2019-04-06T06:33:45.052Z,19.50
2019-04-06T06:36:12.737Z,19.50
2019-04-06T06:38:40.404Z,19.20
2019-04-06T06:41:08.050Z,18.83
2019-04-06T06:43:35.792Z,20.00
2019-04-06T06:46:03.504Z,16.97
2019-04-06T06:48:31.332Z,17.77
2019-04-06T06:50:59.004Z,17.70
2019-04-06T06:53:26.723Z,17.57
2019-04-06T06:55:54.723Z,15.97
2019-04-06T06:58:25.707Z,17.83
2019-04-06T07:00:51.819Z,16.93
2019-04-06T07:03:19.504Z,17.80
2019-04-06T07:05:47.179Z,19.43
2019-04-06T07:08:15.082Z,14.87
2019-04-06T07:10:42.823Z,18.33
2019-04-06T07:13:10.687Z,16.33
2019-04-06T07:15:38.424Z,18.53
2019-04-06T07:18:06.092Z,16.03
2019-04-06T07:20:33.759Z,18.30
2019-04-06T07:23:01.448Z,20.33
2019-04-06T07:25:29.166Z,18.53
2019-04-06T07:27:56.878Z,15.97
2019-04-06T07:30:24.575Z,18.10
2019-04-06T07:32:52.227Z,20.37
2019-04-06T07:35:19.931Z,15.87
2019-04-06T07:37:47.595Z,19.70
2019-04-06T07:40:15.433Z,17.30
2019-04-06T07:42:43.110Z,15.43
2019-04-06T07:45:10.780Z,16.97
2019-04-06T07:47:38.535Z,19.47
2019-04-06T07:50:06.203Z,18.50
2019-04-06T07:52:33.868Z,16.83
2019-04-06T07:55:01.531Z,18.13
2019-04-06T07:57:29.203Z,16.27
2019-04-06T07:59:57.032Z,20.00
2019-04-06T08:02:24.724Z,17.30
2019-04-06T08:04:52.486Z,16.20
2019-04-06T08:07:20.410Z,15.33
2019-04-06T08:09:48.183Z,17.33
2019-04-06T08:12:15.871Z,15.10
2019-04-06T08:14:43.594Z,14.33
2019-04-06T08:17:11.488Z,19.43
2019-04-06T08:19:39.190Z,15.50
2019-04-06T08:22:06.981Z,16.07
2019-04-06T08:24:34.914Z,15.53
2019-04-06T08:27:02.627Z,13.93
2019-04-06T08:29:30.400Z,15.67
2019-04-06T08:31:58.092Z,20.93
2019-04-06T08:34:25.821Z,16.40
2019-04-06T08:36:53.560Z,18.37
2019-04-06T08:39:21.318Z,19.13
2019-04-06T08:41:48.983Z,17.03
2019-04-06T08:44:16.776Z,17.03
2019-04-06T08:46:44.495Z,17.20
2019-04-06T08:49:12.398Z,17.73
2019-04-06T08:51:40.218Z,17.10
2019-04-06T08:54:07.891Z,18.47
2019-04-06T08:56:35.555Z,20.20
2019-04-06T08:59:11.264Z,14.07
2019-04-06T09:01:32.615Z,19.20
2019-04-06T09:04:00.269Z,17.47
2019-04-06T09:06:27.927Z,16.13
2019-04-06T09:08:55.590Z,15.60
2019-04-06T09:11:23.521Z,18.67
2019-04-06T09:13:51.320Z,15.23
2019-04-06T09:16:18.995Z,17.83
2019-04-06T09:18:48.694Z,18.20
2019-04-06T09:21:16.180Z,17.57
2019-04-06T09:23:44.000Z,17.63
2019-04-06T09:26:11.924Z,15.87
2019-04-06T09:28:39.922Z,16.70
2019-04-06T09:31:08.107Z,18.10
2019-04-06T09:33:35.787Z,18.07
2019-04-06T09:36:03.451Z,18.80
2019-04-06T09:38:31.106Z,14.60
2019-04-06T09:40:58.911Z,19.77
2019-04-06T09:43:26.619Z,14.70
2019-04-06T09:46:03.514Z,18.07
2019-04-06T09:48:37.839Z,17.48
2019-04-06T09:51:25.410Z,18.20
2019-04-06T09:54:05.944Z,16.02
2019-04-06T09:56:37.034Z,18.10
2019-04-06T09:59:15.802Z,15.43
2019-04-06T10:02:02.501Z,19.67
2019-04-06T10:04:43.615Z,16.90
2019-04-06T10:07:20.348Z,16.23
2019-04-06T10:09:53.660Z,16.40
2019-04-06T10:12:36.890Z,14.17
2019-04-06T10:15:25.496Z,16.27
2019-04-06T10:17:58.443Z,17.13
2019-04-06T10:20:35.129Z,19.25
2019-04-06T10:23:21.900Z,15.20
2019-04-06T10:25:54.597Z,14.70
2019-04-06T10:28:43.203Z,16.40
2019-04-06T10:31:29.934Z,14.80
2019-04-06T10:34:19.723Z,15.30
2019-04-06T10:36:52.675Z,16.93
2019-04-06T10:39:28.045Z,15.67
2019-04-06T10:42:01.052Z,14.07
2019-04-06T10:44:47.395Z,14.15
2019-04-06T10:47:23.678Z,17.53
2019-04-06T10:50:00.160Z,15.73
2019-04-06T10:52:36.056Z,15.83
2019-04-06T10:55:12.008Z,19.57
2019-04-06T10:58:00.660Z,15.00
2019-04-06T11:00:48.342Z,18.30
2019-04-06T11:03:21.807Z,17.30
2019-04-06T11:05:54.777Z,19.20
2019-04-06T11:08:27.890Z,20.10
2019-04-06T11:11:04.536Z,16.90
2019-04-06T11:13:42.056Z,20.95
2019-04-06T11:16:16.783Z,17.60
2019-04-06T11:18:57.847Z,22.50
2019-04-06T11:21:30.819Z,22.87
2019-04-06T11:24:11.718Z,18.27
2019-04-06T11:26:48.699Z,17.35
2019-04-06T11:29:21.868Z,15.43
2019-04-06T11:32:00.294Z,18.73
2019-04-06T11:34:33.264Z,20.17
2019-04-06T11:37:11.417Z,15.53
2019-04-06T11:40:03.410Z,18.13
2019-04-06T11:42:46.131Z,18.02
2019-04-06T11:45:24.035Z,22.07
2019-04-06T11:48:02.086Z,17.70
2019-04-06T11:50:43.933Z,16.62
2019-04-06T11:53:18.296Z,21.80
2019-04-06T11:55:54.839Z,22.00
2019-04-06T11:58:41.543Z,19.87
2019-04-06T12:01:15.072Z,19.90
2019-04-06T12:03:55.135Z,18.60
2019-04-06T12:06:28.495Z,18.60
2019-04-06T12:09:19.341Z,18.90
2019-04-06T12:11:59.755Z,12.97
2019-04-06T12:14:32.328Z,17.60
2019-04-06T12:17:09.215Z,20.30
2019-04-06T12:19:56.170Z,22.17
2019-04-06T12:22:30.270Z,21.97
2019-04-06T12:25:08.449Z,18.92
2019-04-06T12:27:49.669Z,21.90
2019-04-06T12:30:36.607Z,21.90
2019-04-06T12:33:06.251Z,17.30
2019-04-06T12:35:47.731Z,19.00
2019-04-06T12:38:25.400Z,17.47
2019-04-06T12:40:58.557Z,18.17
2019-04-06T12:43:39.089Z,18.93
2019-04-06T12:46:19.906Z,19.98
2019-04-06T12:49:01.650Z,17.73
2019-04-06T12:51:48.371Z,18.20
2019-04-06T12:54:27.650Z,18.93
2019-04-06T12:57:05.562Z,20.57
2019-04-06T12:59:53.380Z,19.70
2019-04-06T13:02:30.119Z,22.33
2019-04-06T13:05:02.992Z,15.97
2019-04-06T13:07:40.180Z,17.03
2019-04-06T13:10:14.184Z,16.90
2019-04-06T13:13:00.900Z,19.10
2019-04-06T13:15:35.332Z,16.50
2019-04-06T13:18:10.067Z,16.27
2019-04-06T13:20:48.646Z,17.23
2019-04-06T13:23:31.797Z,16.12
2019-04-06T13:26:14.103Z,21.50
2019-04-06T13:28:51.512Z,14.13
2019-04-06T13:31:26.939Z,12.60
2019-04-06T13:34:15.681Z,16.33
2019-04-06T13:36:50.216Z,14.87
2019-04-06T13:39:30.176Z,15.50
2019-04-06T13:42:09.505Z,12.82
2019-04-06T13:44:43.015Z,14.90
2019-04-06T13:47:30.536Z,15.33
2019-04-06T13:50:06.643Z,12.60
2019-04-06T13:52:43.776Z,12.45
2019-04-06T13:55:16.731Z,11.97
2019-04-06T13:57:52.733Z,11.93
2019-04-06T14:00:39.425Z,11.57
2019-04-06T14:03:32.147Z,11.90
2019-04-06T14:06:12.839Z,12.53
2019-04-06T14:08:47.059Z,12.87
2019-04-06T14:11:20.043Z,9.90
2019-04-06T14:13:54.576Z,9.85
2019-04-06T14:16:37.778Z,12.70
2019-04-06T14:19:22.259Z,14.30
2019-04-06T14:21:56.056Z,9.90
2019-04-06T14:24:32.228Z,12.15
2019-04-06T14:27:09.847Z,11.80
2019-04-06T14:29:42.639Z,12.27
2019-04-06T14:32:19.100Z,14.07
2019-04-06T14:34:52.035Z,12.50
2019-04-06T14:37:25.016Z,11.80
2019-04-06T14:39:57.936Z,10.33
2019-04-06T14:42:34.510Z,10.28
2019-04-06T14:45:09.741Z,11.12
2019-04-06T14:47:56.431Z,10.93
2019-04-06T14:50:29.499Z,10.65
2019-04-06T14:53:07.444Z,11.65
2019-04-06T14:55:41.563Z,11.40
2019-04-06T14:58:22.567Z,10.83
2019-04-06T15:01:09.505Z,11.23
2019-04-06T15:03:50.071Z,13.57
2019-04-06T15:06:27.081Z,11.18
2019-04-06T15:09:04.595Z,16.60
2019-04-06T15:11:46.908Z,10.70
2019-04-06T15:14:33.657Z,12.47
2019-04-06T15:17:10.893Z,13.63
2019-04-06T15:19:45.727Z,12.00
2019-04-06T15:22:23.829Z,11.97
2019-04-06T15:25:00.277Z,11.53
2019-04-06T15:27:36.873Z,12.33
2019-04-06T15:30:17.886Z,15.40
2019-04-06T15:33:04.719Z,12.80
2019-04-06T15:35:39.078Z,12.97
2019-04-06T15:38:12.666Z,12.00
2019-04-06T15:40:49.143Z,15.27
2019-04-06T15:43:36.044Z,13.13
2019-04-06T15:46:11.296Z,13.60
2019-04-06T15:48:44.307Z,12.63
2019-04-06T15:51:21.774Z,13.85
2019-04-06T15:54:01.452Z,14.03
2019-04-06T15:56:43.579Z,15.10
2019-04-06T15:59:20.415Z,16.50
2019-04-06T16:02:01.549Z,14.77
2019-04-06T16:04:29.131Z,14.37
2019-04-06T16:07:04.667Z,13.80
2019-04-06T16:09:44.849Z,13.40
2019-04-06T16:12:19.981Z,15.70
2019-04-06T16:14:55.835Z,38.20
2019-04-06T16:17:32.743Z,30.90
2019-04-06T16:20:10.839Z,19.35
2019-04-06T16:22:46.687Z,19.93
2019-04-06T16:25:20.891Z,14.45
2019-04-06T16:28:08.038Z,14.73
2019-04-06T16:30:42.944Z,15.05
2019-04-06T16:33:20.135Z,15.00
2019-04-06T16:35:53.725Z,16.20
2019-04-06T16:38:40.975Z,16.75
2019-04-06T16:41:22.521Z,26.27
2019-04-06T16:43:55.935Z,18.80
2019-04-06T16:46:31.569Z,18.62
2019-04-06T16:49:20.323Z,18.80
2019-04-06T16:52:00.183Z,14.07
2019-04-06T16:54:38.582Z,15.03
2019-04-06T16:57:30.462Z,12.33
2019-04-06T17:00:17.038Z,12.13
2019-04-06T17:02:44.869Z,10.83
2019-04-06T17:05:20.879Z,12.17
2019-04-06T17:08:10.529Z,10.58
2019-04-06T17:10:40.356Z,11.13
2019-04-06T17:13:16.940Z,13.63
2019-04-06T17:16:04.007Z,11.13
2019-04-06T17:18:48.450Z,13.97
2019-04-06T17:21:28.459Z,12.60
2019-04-06T17:24:09.326Z,12.90
2019-04-06T17:26:45.550Z,11.40
2019-04-06T17:29:26.346Z,11.57
2019-04-06T17:32:00.820Z,20.17
2019-04-06T17:34:53.121Z,14.30
2019-04-06T17:37:20.898Z,12.87
2019-04-06T17:40:08.728Z,12.70
2019-04-06T17:42:43.551Z,13.80
2019-04-06T17:45:31.289Z,14.13
2019-04-06T17:48:18.404Z,16.20
2019-04-06T17:51:01.604Z,12.77
2019-04-06T17:53:41.077Z,15.60
2019-04-06T17:56:22.795Z,16.77
2019-04-06T17:59:12.062Z,17.43
2019-04-06T18:01:48.960Z,15.13
2019-04-06T18:04:29.395Z,19.37
2019-04-06T18:07:21.292Z,16.03
2019-04-06T18:10:00.113Z,18.00
2019-04-06T18:12:34.840Z,16.80
2019-04-06T18:15:03.460Z,16.67
2019-04-06T18:17:31.244Z,16.67
2019-04-06T18:19:58.906Z,14.13
2019-04-06T18:22:26.659Z,15.03
2019-04-06T18:24:54.328Z,16.40
2019-04-06T18:27:21.987Z,16.77
2019-04-06T18:29:51.102Z,14.33
2019-04-06T18:32:30.323Z,17.13
2019-04-06T18:34:58.146Z,16.33
2019-04-06T18:37:44.890Z,19.67
2019-04-06T18:40:18.847Z,21.40
2019-04-06T18:42:46.492Z,20.30
2019-04-06T18:45:14.388Z,19.60
2019-04-06T18:47:42.467Z,19.87
2019-04-06T18:50:10.351Z,19.93
2019-04-06T18:52:38.457Z,17.50
2019-04-06T18:55:06.463Z,20.93
2019-04-06T18:57:34.551Z,17.50
2019-04-06T19:00:02.500Z,21.43
2019-04-06T19:02:30.591Z,18.50
2019-04-06T19:04:58.662Z,20.70
2019-04-06T19:07:26.868Z,20.17
2019-04-06T19:09:54.680Z,19.53
2019-04-06T19:12:22.360Z,20.23
2019-04-06T19:14:50.027Z,18.10
2019-04-06T19:17:17.679Z,20.57
2019-04-06T19:19:45.570Z,19.40
2019-04-06T19:22:13.587Z,20.73
2019-04-06T19:24:41.800Z,21.70
2019-04-06T19:27:10.022Z,20.63
2019-04-06T19:29:37.744Z,21.70
2019-04-06T19:32:05.677Z,20.37
2019-04-06T19:34:33.451Z,22.13
2019-04-06T19:37:01.111Z,20.53
2019-04-06T19:39:29.130Z,20.03
2019-04-06T19:41:57.346Z,21.57
2019-04-06T19:44:25.176Z,19.67
2019-04-06T19:46:52.955Z,18.60
2019-04-06T19:49:20.775Z,19.70
2019-04-06T19:51:48.845Z,20.35
2019-04-06T19:54:16.671Z,19.47
2019-04-06T19:56:44.395Z,17.93
2019-04-06T19:59:13.578Z,18.93
2019-04-06T20:01:41.422Z,19.43
2019-04-06T20:04:09.142Z,19.50
2019-04-06T20:06:37.360Z,19.43
2019-04-06T20:09:06.057Z,24.60
2019-04-06T20:11:34.677Z,25.80
2019-04-06T20:14:02.474Z,26.83
2019-04-06T20:16:30.130Z,24.93
2019-04-06T20:18:57.771Z,22.23
2019-04-06T20:21:25.431Z,21.17
2019-04-06T20:23:53.195Z,21.17
2019-04-06T20:26:20.977Z,20.23
2019-04-06T20:28:49.534Z,23.03
2019-04-06T20:31:17.367Z,24.67
2019-04-06T20:33:50.990Z,21.70
2019-04-06T20:36:14.652Z,21.37
2019-04-06T20:38:42.398Z,24.43
2019-04-06T20:41:10.099Z,23.50
2019-04-06T20:43:37.763Z,23.47
2019-04-06T20:46:05.444Z,21.43
2019-04-06T20:48:33.665Z,24.90
2019-04-06T20:51:01.547Z,24.43
2019-04-06T20:53:29.886Z,24.93
2019-04-06T20:55:57.801Z,20.80
2019-04-06T20:58:25.927Z,23.20
2019-04-06T21:00:53.688Z,22.77
2019-04-06T21:03:21.341Z,24.73
2019-04-06T21:05:49.392Z,24.33
2019-04-06T21:08:17.223Z,22.00
2019-04-06T21:10:45.634Z,21.60
2019-04-06T21:13:13.487Z,22.57
2019-04-06T21:15:41.723Z,20.27
2019-04-06T21:18:09.497Z,21.37
2019-04-06T21:20:37.171Z,23.43
2019-04-06T21:23:05.121Z,21.33
2019-04-06T21:25:32.898Z,21.13
2019-04-06T21:28:01.083Z,22.67
2019-04-06T21:30:28.811Z,23.93
2019-04-06T21:32:56.822Z,22.97
2019-04-06T21:35:24.600Z,22.23
2019-04-06T21:37:52.843Z,26.87
2019-04-06T21:40:20.643Z,24.73
2019-04-06T21:42:48.538Z,25.40
2019-04-06T21:45:16.232Z,22.57
2019-04-06T21:47:44.231Z,26.27
2019-04-06T21:50:11.991Z,24.23
2019-04-06T21:52:40.364Z,24.47
2019-04-06T21:55:08.113Z,25.67
2019-04-06T21:57:35.805Z,25.40
2019-04-06T22:00:04.264Z,23.53
2019-04-06T22:02:32.424Z,26.17
2019-04-06T22:05:00.271Z,25.23
2019-04-06T22:07:27.929Z,25.13
2019-04-06T22:09:55.855Z,25.50
2019-04-06T22:12:23.921Z,25.87
2019-04-06T22:14:51.679Z,25.80
2019-04-06T22:17:19.531Z,24.47
2019-04-06T22:19:48.161Z,25.93
2019-04-06T22:22:15.974Z,27.73
2019-04-06T22:24:43.631Z,26.90
2019-04-06T22:27:11.290Z,25.97
2019-04-06T22:29:38.951Z,27.97
2019-04-06T22:32:06.632Z,29.40
2019-04-06T22:34:39.711Z,26.50
2019-04-06T22:37:03.681Z,25.33
2019-04-06T22:39:31.591Z,25.77
2019-04-06T22:41:59.358Z,23.33
2019-04-06T22:44:27.096Z,26.23
2019-04-06T22:46:54.759Z,23.60
2019-04-06T22:49:22.715Z,27.67
2019-04-06T22:51:50.626Z,25.77
2019-04-06T22:54:18.524Z,28.60
2019-04-06T22:56:46.802Z,26.80
2019-04-06T22:59:14.579Z,26.47
2019-04-06T23:01:42.743Z,27.13
2019-04-06T23:04:20.440Z,25.67
2019-04-06T23:06:53.416Z,27.77
2019-04-06T23:09:21.255Z,26.80
2019-04-06T23:11:49.250Z,26.93
2019-04-06T23:14:16.960Z,27.13
2019-04-06T23:16:44.746Z,28.27
2019-04-06T23:19:13.103Z,28.13
2019-04-06T23:21:41.367Z,25.87
2019-04-06T23:24:09.100Z,24.43
2019-04-06T23:26:37.167Z,28.83
2019-04-06T23:29:05.180Z,28.20
2019-04-06T23:31:33.495Z,28.70
2019-04-06T23:34:02.184Z,30.93
2019-04-06T23:36:30.407Z,28.03
2019-04-06T23:38:58.180Z,27.90
2019-04-06T23:41:25.883Z,25.53
2019-04-06T23:43:53.627Z,28.17
2019-04-06T23:46:21.322Z,26.13
2019-04-06T23:48:48.970Z,28.67
2019-04-06T23:51:16.619Z,26.97
2019-04-06T23:53:44.377Z,30.07
2019-04-06T23:56:12.066Z,26.10
2019-04-06T23:58:39.715Z,28.40
